Time;durP1;ratioP1;P1;durP2;ratioP2;P2;SDS_P1;SDS_P2;PMS_P1;PMS_P2;Temp;Humidity;BMP_temperature;BMP_pressure;BME280_temperature;BME280_humidity;BME280_pressure;Samples;Min_cycle;Max_cycle;Signal;HPM_P1;HPM_P2
2023/07/17 00:00:11;;;;;;;5.15;2.28;;;;;;;22.17;56.25;101512.56;5061175;28;20046;-55
2023/07/17 00:02:37;;;;;;;5.30;2.50;;;;;;;22.17;56.27;101506.28;5060744;28;20373;-55
2023/07/17 00:05:04;;;;;;;3.78;2.47;;;;;;;22.16;56.36;101502.72;5060845;28;20037;-55
2023/07/17 00:07:29;;;;;;;5.20;2.30;;;;;;;22.16;56.29;101510.88;5062039;28;20040;-55
2023/07/17 00:09:55;;;;;;;3.78;2.17;;;;;;;22.15;55.85;101508.31;5060184;28;20395;-55
2023/07/17 00:12:20;;;;;;;6.53;2.30;;;;;;;22.14;55.91;101510.19;5060636;28;20123;-55
2023/07/17 00:14:46;;;;;;;4.65;2.40;;;;;;;22.14;56.12;101504.75;5061148;28;20044;-55
2023/07/17 00:17:12;;;;;;;3.97;2.03;;;;;;;22.14;56.20;101501.16;5060140;28;20056;-55
2023/07/17 00:19:38;;;;;;;4.32;2.15;;;;;;;22.13;56.07;101515.75;5058762;28;20079;-55
2023/07/17 00:22:03;;;;;;;3.30;2.30;;;;;;;22.12;55.74;101509.47;5062531;28;20422;-55
2023/07/17 00:24:28;;;;;;;2.97;2.10;;;;;;;22.12;55.71;101512.16;5055895;28;20056;-55
2023/07/17 00:26:54;;;;;;;4.50;2.40;;;;;;;22.11;55.61;101506.94;5063295;28;20402;-55
2023/07/17 00:29:23;;;;;;;4.13;2.17;;;;;;;22.09;55.55;101507.06;5061746;28;20037;-55
2023/07/17 00:31:49;;;;;;;3.03;2.03;;;;;;;22.09;55.76;101509.78;5059829;28;20032;-55
2023/07/17 00:34:14;;;;;;;4.20;2.35;;;;;;;22.10;55.49;101505.22;5060681;28;20036;-55
2023/07/17 00:36:39;;;;;;;4.28;2.47;;;;;;;22.09;55.58;101509.78;5060822;28;20042;-55
2023/07/17 00:39:05;;;;;;;4.22;1.90;;;;;;;22.09;55.55;101512.50;5059745;28;20079;-55
2023/07/17 00:41:30;;;;;;;3.05;2.00;;;;;;;22.09;55.48;101512.50;5059702;28;20063;-55
2023/07/17 00:43:55;;;;;;;4.05;2.13;;;;;;;22.08;55.73;101516.22;5058855;28;20036;-55
2023/07/17 00:46:22;;;;;;;4.72;2.15;;;;;;;22.06;55.54;101518.22;5057342;28;20032;-55
2023/07/17 00:48:47;;;;;;;5.00;2.00;;;;;;;22.06;55.50;101518.22;5059805;28;20060;-55
2023/07/17 00:51:12;;;;;;;3.13;1.88;;;;;;;22.05;55.32;101513.84;5060427;28;20416;-55
2023/07/17 00:53:38;;;;;;;4.43;2.22;;;;;;;22.05;55.65;101516.53;5059132;28;20044;-55
2023/07/17 00:56:04;;;;;;;2.83;2.10;;;;;;;22.03;55.67;101521.28;5061235;28;20032;-55
2023/07/17 00:58:29;;;;;;;3.85;1.90;;;;;;;22.03;55.73;101529.41;5059833;28;20056;-55
2023/07/17 01:00:55;;;;;;;6.60;2.20;;;;;;;22.03;55.42;101535.69;5058878;28;20041;-55
2023/07/17 01:03:21;;;;;;;3.35;2.22;;;;;;;22.02;55.23;101527.69;5059264;28;20104;-55
2023/07/17 01:05:46;;;;;;;3.63;2.00;;;;;;;22.01;55.63;101532.28;5058991;28;20052;-55
2023/07/17 01:08:11;;;;;;;4.10;2.25;;;;;;;22.02;55.44;101528.53;5060596;28;20394;-55
2023/07/17 01:10:37;;;;;;;5.35;2.65;;;;;;;22.01;55.48;101531.44;5059088;28;20066;-55
2023/07/17 01:13:03;;;;;;;4.50;2.17;;;;;;;22.01;55.62;101526.84;5059930;28;20033;-55
2023/07/17 01:15:29;;;;;;;4.43;2.25;;;;;;;22.00;55.51;101530.56;5038632;28;20059;-55
2023/07/17 01:17:54;;;;;;;6.53;2.55;;;;;;;22.01;55.18;101531.44;5059786;28;20041;-55
2023/07/17 01:20:20;;;;;;;5.32;2.20;;;;;;;21.99;55.24;101528.00;5061570;28;20033;-55
2023/07/17 01:22:54;;;;;;;3.28;2.10;;;;;;;22.00;54.89;101537.84;5061217;28;20517;-55
2023/07/17 01:25:20;;;;;;;4.65;2.40;;;;;;;21.98;54.86;101538.00;5059969;28;20081;-55
2023/07/17 01:27:45;;;;;;;2.95;2.03;;;;;;;21.98;54.95;101540.72;5059799;28;20413;-55
2023/07/17 01:30:11;;;;;;;3.15;1.80;;;;;;;21.98;54.95;101542.56;5061306;28;20040;-55
2023/07/17 01:32:36;;;;;;;4.85;2.35;;;;;;;21.97;55.06;101543.56;5058824;28;20043;-55
2023/07/17 01:35:03;;;;;;;6.00;2.47;;;;;;;21.97;54.84;101547.16;5059193;28;20475;-55
2023/07/17 01:37:28;;;;;;;4.82;2.10;;;;;;;21.96;54.89;101550.00;5058646;28;20033;-55
2023/07/17 01:39:54;;;;;;;3.60;1.92;;;;;;;21.95;54.73;101553.72;5058827;28;20033;-55
2023/07/17 01:42:19;;;;;;;4.53;2.08;;;;;;;21.94;54.77;101546.59;5060425;28;20032;-55
2023/07/17 01:44:44;;;;;;;5.32;2.45;;;;;;;21.94;54.77;101549.31;5060073;28;20021;-55
2023/07/17 01:47:10;;;;;;;4.55;2.10;;;;;;;21.94;54.58;101552.03;5058544;28;20036;-55
2023/07/17 01:49:35;;;;;;;3.88;1.88;;;;;;;21.92;54.69;101544.06;5059164;28;20033;-55
2023/07/17 01:52:00;;;;;;;4.22;1.70;;;;;;;21.91;55.05;101542.31;5061032;28;20029;-55
2023/07/17 01:54:26;;;;;;;4.03;1.88;;;;;;;21.91;55.17;101536.91;5058536;28;20116;-55
2023/07/17 01:56:51;;;;;;;3.97;2.20;;;;;;;21.91;54.92;101542.31;5058171;28;20099;-55
2023/07/17 01:59:17;;;;;;;4.60;2.03;;;;;;;21.89;54.50;101536.22;5060256;28;20098;-55
2023/07/17 02:01:42;;;;;;;6.35;2.15;;;;;;;21.90;54.92;101545.22;5058435;28;20497;-55
2023/07/17 02:04:07;;;;;;;4.00;2.13;;;;;;;21.89;55.00;101538.06;5058978;28;20032;-55
2023/07/17 02:06:33;;;;;;;3.95;2.10;;;;;;;21.89;54.99;101543.50;5059207;28;20648;-55
2023/07/17 02:08:58;;;;;;;6.90;2.55;;;;;;;21.86;54.94;101537.38;5058552;28;20091;-55
2023/07/17 02:11:27;;;;;;;5.47;2.20;;;;;;;21.86;54.50;101540.09;5057445;28;20085;-55
2023/07/17 02:13:52;;;;;;;5.40;2.03;;;;;;;21.86;54.90;101545.53;5059515;28;20037;-56
2023/07/17 02:16:17;;;;;;;4.72;2.25;;;;;;;21.86;54.52;101544.69;5057138;28;20055;-55
2023/07/17 02:18:43;;;;;;;3.67;2.03;;;;;;;21.85;54.45;101543.81;5064774;28;20036;-55
2023/07/17 02:21:08;;;;;;;2.67;1.75;;;;;;;21.85;54.48;101538.38;5063969;28;20082;-55
2023/07/17 02:23:34;;;;;;;5.70;2.38;;;;;;;21.84;54.92;101541.28;5062033;28;20494;-55
2023/07/17 02:25:59;;;;;;;5.75;2.13;;;;;;;21.83;54.99;101551.25;5065581;28;20493;-55
2023/07/17 02:28:24;;;;;;;5.18;2.22;;;;;;;21.83;54.49;101556.66;5062969;28;20119;-55
2023/07/17 02:30:50;;;;;;;3.03;1.92;;;;;;;21.82;54.64;101554.97;5063008;28;20036;-55
2023/07/17 02:33:15;;;;;;;3.10;2.38;;;;;;;21.81;54.39;101558.69;5062806;28;20025;-55
2023/07/17 02:35:40;;;;;;;4.40;1.90;;;;;;;21.81;54.43;101558.69;5063005;28;20120;-55
2023/07/17 02:38:06;;;;;;;3.40;1.77;;;;;;;21.80;54.59;101557.00;5063146;28;20036;-55
2023/07/17 02:40:31;;;;;;;5.03;2.03;;;;;;;21.80;54.83;101562.41;5062246;28;20389;-55
2023/07/17 02:42:56;;;;;;;5.93;2.38;;;;;;;21.79;54.60;101557.97;5062604;28;20448;-55
2023/07/17 02:45:22;;;;;;;5.80;2.03;;;;;;;21.79;54.44;101568.81;5061503;28;20051;-56
2023/07/17 02:47:47;;;;;;;5.60;2.10;;;;;;;21.79;54.63;101566.13;5064436;28;20024;-54
2023/07/17 02:50:14;;;;;;;4.05;2.20;;;;;;;21.77;54.51;101568.13;5062170;28;20036;-55
2023/07/17 02:52:39;;;;;;;3.40;2.08;;;;;;;21.74;54.60;101565.75;5061202;28;20025;-55
2023/07/17 02:55:05;;;;;;;3.92;2.00;;;;;;;21.75;54.42;101562.00;5061796;28;20024;-55
2023/07/17 02:57:34;;;;;;;3.72;2.17;;;;;;;21.74;54.59;101564.88;5061989;28;20493;-55
2023/07/17 03:00:08;;;;;;;4.95;2.40;;;;;;;21.74;54.24;101562.16;5061358;28;20385;-55
2023/07/17 03:02:40;;;;;;;5.45;2.08;;;;;;;21.73;54.13;101564.03;5055913;28;20390;-55
2023/07/17 03:05:08;;;;;;;4.95;1.95;;;;;;;21.72;54.11;101565.03;5061407;28;20028;-55
2023/07/17 03:07:36;;;;;;;6.13;2.30;;;;;;;21.71;54.24;101574.19;5063266;28;20032;-55
2023/07/17 03:10:02;;;;;;;3.92;1.80;;;;;;;21.72;54.50;101577.72;5061592;28;20466;-55
2023/07/17 03:12:27;;;;;;;2.72;1.90;;;;;;;21.70;54.40;101574.31;5062068;28;20033;-55
2023/07/17 03:14:53;;;;;;;4.65;2.15;;;;;;;21.69;54.18;101576.19;5062215;28;20040;-55
2023/07/17 03:17:18;;;;;;;5.38;2.30;;;;;;;21.70;54.50;101583.28;5061705;28;20064;-55
2023/07/17 03:19:43;;;;;;;3.63;1.77;;;;;;;21.69;54.11;101594.31;5064689;28;20060;-55
2023/07/17 03:22:09;;;;;;;4.70;2.03;;;;;;;21.68;54.45;101585.31;5062203;28;20086;-55
2023/07/17 03:24:34;;;;;;;5.32;2.08;;;;;;;21.67;54.59;101584.47;5061069;28;20470;-55
2023/07/17 03:27:00;;;;;;;6.15;1.90;;;;;;;21.67;54.10;101589.03;5060865;28;20348;-55
2023/07/17 03:29:28;;;;;;;5.15;2.50;;;;;;;21.65;54.06;101581.06;5065856;28;20032;-55
2023/07/17 03:31:53;;;;;;;3.90;2.00;;;;;;;21.65;54.47;101591.06;5057183;28;20064;-55
2023/07/17 03:34:19;;;;;;;5.78;2.28;;;;;;;21.65;54.41;101588.34;5061783;28;20116;-55
2023/07/17 03:36:45;;;;;;;3.13;1.83;;;;;;;21.63;54.51;101585.78;5061500;28;20491;-55
2023/07/17 03:39:11;;;;;;;2.92;1.63;;;;;;;21.63;53.87;101587.66;5060666;28;20123;-55
2023/07/17 03:41:37;;;;;;;6.35;2.05;;;;;;;21.62;54.32;101586.78;5060944;28;20296;-55
2023/07/17 03:44:03;;;;;;;5.95;2.50;;;;;;;21.61;54.15;101584.19;5064441;28;20032;-55
2023/07/17 03:46:30;;;;;;;5.05;1.60;;;;;;;21.61;54.12;101595.03;5060483;28;20055;-55
2023/07/17 03:48:55;;;;;;;2.97;2.15;;;;;;;21.61;54.43;101586.91;5060818;28;20123;-55
2023/07/17 03:51:21;;;;;;;4.70;2.03;;;;;;;21.59;53.85;101589.81;5061653;28;20111;-55
2023/07/17 03:53:47;;;;;;;5.80;2.00;;;;;;;21.59;53.82;101588.94;5059990;28;20500;-55
2023/07/17 03:56:12;;;;;;;4.18;2.00;;;;;;;21.59;53.82;101586.22;5060848;28;20036;-55
2023/07/17 03:58:38;;;;;;;6.75;2.30;;;;;;;21.59;54.08;101591.63;5061626;28;20498;-55
2023/07/17 04:01:03;;;;;;;4.10;1.75;;;;;;;21.59;53.72;101597.06;5059832;28;20080;-55
2023/07/17 04:03:28;;;;;;;4.07;2.10;;;;;;;21.58;54.20;101592.66;5058253;28;20136;-55
2023/07/17 04:05:54;;;;;;;4.13;1.80;;;;;;;21.57;53.64;101593.66;5061247;28;20041;-55
2023/07/17 04:08:19;;;;;;;6.43;2.00;;;;;;;21.57;53.74;101604.50;5059940;28;20495;-55
2023/07/17 04:10:45;;;;;;;4.35;2.05;;;;;;;21.57;54.04;101610.78;5063529;28;20036;-55
2023/07/17 04:13:10;;;;;;;5.47;2.13;;;;;;;21.56;53.87;101609.06;5060586;28;20115;-55
2023/07/17 04:15:36;;;;;;;7.20;2.28;;;;;;;21.56;54.03;101608.22;5059442;28;20384;-55
2023/07/17 04:18:02;;;;;;;5.63;2.28;;;;;;;21.55;53.78;101606.50;5060047;28;20399;-55
2023/07/17 04:20:27;;;;;;;5.70;2.25;;;;;;;21.55;53.68;101606.50;5061463;28;20048;-55
2023/07/17 04:22:53;;;;;;;3.80;2.05;;;;;;;21.53;53.61;101609.34;5059894;28;20025;-55
2023/07/17 04:25:18;;;;;;;5.95;2.42;;;;;;;21.54;53.49;101615.66;5062235;28;20145;-55
2023/07/17 04:27:43;;;;;;;4.82;2.22;;;;;;;21.54;53.82;101615.66;5061106;28;20052;-55
2023/07/17 04:30:09;;;;;;;3.55;1.77;;;;;;;21.52;53.70;101617.66;5058688;28;20129;-55
2023/07/17 04:32:35;;;;;;;5.35;2.22;;;;;;;21.51;53.86;101627.63;5061040;28;20037;-55
2023/07/17 04:35:00;;;;;;;4.97;2.05;;;;;;;21.51;53.72;101630.34;5061737;28;20601;-55
2023/07/17 04:37:25;;;;;;;4.32;2.13;;;;;;;21.52;53.72;101633.91;5060611;28;20447;-55
2023/07/17 04:39:51;;;;;;;4.65;1.95;;;;;;;21.50;53.28;101630.50;5063925;28;20036;-55
2023/07/17 04:42:16;;;;;;;4.32;1.77;;;;;;;21.50;53.34;101635.94;5061864;28;20042;-55
2023/07/17 04:44:45;;;;;;;5.25;2.45;;;;;;;21.50;53.69;101639.47;5061536;28;20067;-55
2023/07/17 04:47:11;;;;;;;5.35;2.55;;;;;;;21.48;53.26;101638.78;5060902;28;20078;-55
2023/07/17 04:49:36;;;;;;;5.25;2.13;;;;;;;21.48;53.55;101645.03;5061135;28;20040;-55
2023/07/17 04:52:01;;;;;;;5.75;2.60;;;;;;;21.48;53.77;101649.63;5060909;28;20235;-55
2023/07/17 04:54:27;;;;;;;5.45;2.17;;;;;;;21.49;53.23;101645.88;5060115;28;20032;-56
2023/07/17 04:56:52;;;;;;;5.30;2.45;;;;;;;21.48;53.78;101646.91;5060419;28;20043;-55
2023/07/17 04:59:19;;;;;;;6.78;2.40;;;;;;;21.46;53.58;101641.63;5057715;28;20432;-55
2023/07/17 05:01:44;;;;;;;4.97;2.40;;;;;;;21.47;53.34;101646.03;5058208;28;20041;-55
2023/07/17 05:04:10;;;;;;;4.65;2.30;;;;;;;21.47;53.24;101637.06;5058735;28;20528;-55
2023/07/17 05:06:35;;;;;;;6.70;2.70;;;;;;;21.47;53.34;101650.59;5059594;28;20075;-55
2023/07/17 05:09:01;;;;;;;5.60;2.72;;;;;;;21.45;53.37;101653.47;5058084;28;20124;-55
2023/07/17 05:11:26;;;;;;;5.95;2.63;;;;;;;21.45;53.50;101650.75;5058326;28;20043;-55
2023/07/17 05:13:51;;;;;;;6.80;2.65;;;;;;;21.45;53.73;101653.47;5058947;28;20399;-55
2023/07/17 05:16:17;;;;;;;7.35;2.88;;;;;;;21.44;53.75;101651.78;5053170;28;20061;-55
2023/07/17 05:18:42;;;;;;;5.85;2.55;;;;;;;21.44;53.75;101656.34;5055464;28;20119;-55
2023/07/17 05:21:08;;;;;;;4.07;2.40;;;;;;;21.44;53.37;101654.47;5056565;28;20036;-55
2023/07/17 05:23:33;;;;;;;4.97;2.60;;;;;;;21.44;53.66;101664.47;5055549;28;20040;-55
2023/07/17 05:26:00;;;;;;;3.83;2.80;;;;;;;21.43;53.87;101665.44;5056854;28;20025;-56
2023/07/17 05:28:27;;;;;;;8.35;3.08;;;;;;;21.43;53.86;101663.56;5060323;28;20033;-55
2023/07/17 05:30:54;;;;;;;5.43;2.97;;;;;;;21.43;53.89;101663.56;5061679;28;20049;-55
2023/07/17 05:33:20;;;;;;;8.32;3.20;;;;;;;21.43;53.41;101671.69;5056881;28;20116;-55
2023/07/17 05:35:45;;;;;;;6.97;2.97;;;;;;;21.44;53.46;101678.03;5056075;28;20032;-55
2023/07/17 05:38:11;;;;;;;3.25;2.50;;;;;;;21.43;54.02;101673.56;5063315;28;20043;-55
2023/07/17 05:40:39;;;;;;;4.45;2.72;;;;;;;21.42;53.92;101678.13;5054861;28;20032;-55
2023/07/17 05:43:05;;;;;;;5.95;2.83;;;;;;;21.43;53.89;101681.69;5056232;28;20029;-55
2023/07/17 05:45:30;;;;;;;6.45;3.15;;;;;;;21.44;54.05;101686.16;5056398;28;20051;-55
2023/07/17 05:47:55;;;;;;;7.00;3.20;;;;;;;21.43;53.83;101690.66;5057244;28;20020;-55
2023/07/17 05:50:21;;;;;;;4.75;2.55;;;;;;;21.43;54.12;101690.66;5057496;28;20036;-55
2023/07/17 05:52:47;;;;;;;6.53;3.08;;;;;;;21.44;54.17;101691.56;5058300;28;20082;-55
2023/07/17 05:55:12;;;;;;;6.57;3.65;;;;;;;21.44;53.81;101691.56;5059454;28;20037;-55
2023/07/17 05:57:38;;;;;;;6.53;3.13;;;;;;;21.43;54.40;101690.66;5061180;28;20486;-55
2023/07/17 06:00:04;;;;;;;5.90;3.40;;;;;;;21.42;53.62;101691.69;5063650;28;20115;-55
2023/07/17 06:02:30;;;;;;;4.95;2.97;;;;;;;21.44;54.04;101702.41;5059548;28;20670;-55
2023/07/17 06:04:55;;;;;;;5.22;2.83;;;;;;;21.44;54.03;101695.13;5062824;28;20029;-55
2023/07/17 06:07:21;;;;;;;5.65;2.92;;;;;;;21.45;53.65;101688.69;5061784;28;20078;-55
2023/07/17 06:09:46;;;;;;;5.22;3.20;;;;;;;21.45;53.97;101699.53;5060873;28;20040;-55
2023/07/17 06:12:12;;;;;;;6.07;3.45;;;;;;;21.45;54.25;101691.41;5061087;28;20033;-55
2023/07/17 06:14:37;;;;;;;6.13;2.92;;;;;;;21.44;53.85;101705.97;5060195;28;20124;-55
2023/07/17 06:17:03;;;;;;;9.73;3.65;;;;;;;21.44;54.50;101702.41;5061966;28;20133;-55
2023/07/17 06:19:28;;;;;;;7.35;3.25;;;;;;;21.43;54.48;101696.06;5062053;28;20033;-55
2023/07/17 06:21:54;;;;;;;6.30;2.72;;;;;;;21.44;54.38;101702.41;5063292;28;20404;-55
2023/07/17 06:24:19;;;;;;;7.00;3.00;;;;;;;21.45;53.81;101709.50;5064036;28;20476;-55
2023/07/17 06:26:45;;;;;;;5.75;3.05;;;;;;;21.45;54.23;101721.19;5063951;28;20107;-55
2023/07/17 06:29:10;;;;;;;3.75;2.70;;;;;;;21.45;53.90;101712.22;5066388;28;20058;-55
2023/07/17 06:31:37;;;;;;;10.20;3.22;;;;;;;21.45;54.52;101720.34;5063758;28;20036;-55
2023/07/17 06:34:02;;;;;;;5.95;2.88;;;;;;;21.44;54.17;101724.94;5065983;28;20032;-55
2023/07/17 06:36:30;;;;;;;5.95;3.10;;;;;;;21.45;54.46;101720.34;5045021;28;20029;-55
2023/07/17 06:38:55;;;;;;;8.00;3.20;;;;;;;21.44;53.95;101729.50;5063395;28;20033;-55
2023/07/17 06:41:21;;;;;;;9.30;3.33;;;;;;;21.44;54.37;101732.22;5061879;28;20044;-55
2023/07/17 06:43:46;;;;;;;7.82;3.67;;;;;;;21.44;54.68;101726.78;5061661;28;20029;-55
2023/07/17 06:46:11;;;;;;;7.22;3.40;;;;;;;21.43;54.23;101728.59;5062723;28;20053;-55
2023/07/17 06:48:37;;;;;;;5.88;3.33;;;;;;;21.44;54.48;101738.47;5062299;28;20119;-55
2023/07/17 06:51:04;;;;;;;7.50;3.63;;;;;;;21.44;54.17;101741.19;5061816;28;20119;-55
2023/07/17 06:53:32;;;;;;;5.80;3.45;;;;;;;21.44;54.48;101745.75;5059885;28;20048;-55
2023/07/17 06:56:03;;;;;;;9.10;3.95;;;;;;;21.44;54.40;101740.34;5060224;28;20502;-55
2023/07/17 06:58:29;;;;;;;11.25;3.83;;;;;;;21.43;54.62;101750.25;5056586;28;20052;-55
2023/07/17 07:00:58;;;;;;;7.50;4.03;;;;;;;21.43;54.18;101750.25;5063949;28;20037;-55
2023/07/17 07:03:24;;;;;;;7.40;3.90;;;;;;;21.43;54.48;101750.25;5056774;28;20418;-55
2023/07/17 07:06:01;;;;;;;9.88;3.60;;;;;;;21.45;54.10;101748.28;5058992;28;20035;-55
2023/07/17 07:08:28;;;;;;;7.70;3.67;;;;;;;21.43;54.14;101754.84;5059816;28;20479;-55
2023/07/17 07:10:55;;;;;;;9.60;3.25;;;;;;;21.44;54.69;101757.44;5053383;28;20033;-55
2023/07/17 07:13:21;;;;;;;6.50;3.67;;;;;;;21.44;54.42;101762.00;5058533;28;20037;-55
2023/07/17 07:15:47;;;;;;;6.80;3.72;;;;;;;21.44;54.54;101759.31;5058441;28;20395;-55
2023/07/17 07:18:12;;;;;;;7.63;3.50;;;;;;;21.45;54.17;101761.00;5059492;28;20029;-55
2023/07/17 07:20:38;;;;;;;5.47;3.40;;;;;;;21.46;54.15;101760.00;5052620;28;20048;-55
2023/07/17 07:23:03;;;;;;;6.55;4.22;;;;;;;21.45;54.53;101759.13;5059149;28;20033;-55
2023/07/17 07:25:29;;;;;;;8.30;3.67;;;;;;;21.45;54.34;101766.41;5065612;28;20173;-55
2023/07/17 07:27:55;;;;;;;5.25;3.35;;;;;;;21.46;54.81;101773.56;5061250;28;20035;-55
2023/07/17 07:30:20;;;;;;;9.18;3.67;;;;;;;21.45;54.75;101775.38;5065144;28;20387;-55
2023/07/17 07:32:47;;;;;;;9.38;4.13;;;;;;;21.47;54.59;101776.09;5061806;28;20040;-55
2023/07/17 07:35:13;;;;;;;7.72;3.88;;;;;;;21.47;54.26;101778.81;5060007;28;20562;-55
2023/07/17 07:37:39;;;;;;;6.95;3.78;;;;;;;21.47;54.69;101773.38;5058313;28;20052;-55
2023/07/17 07:40:06;;;;;;;5.65;3.25;;;;;;;21.48;54.71;101777.81;5061413;28;20040;-55
2023/07/17 07:42:32;;;;;;;8.38;3.75;;;;;;;21.48;54.71;101769.69;5060636;28;20435;-55
2023/07/17 07:44:58;;;;;;;8.00;3.63;;;;;;;21.50;54.67;101783.09;5043511;28;20469;-55
2023/07/17 07:47:23;;;;;;;6.30;3.72;;;;;;;21.52;54.21;101774.81;5056300;28;20032;-55
2023/07/17 07:49:50;;;;;;;7.28;4.07;;;;;;;21.51;54.64;101775.81;5057950;28;20080;-55
2023/07/17 07:52:15;;;;;;;5.55;3.95;;;;;;;21.51;54.67;101782.06;5054733;28;20391;-55
2023/07/17 07:54:42;;;;;;;8.32;3.65;;;;;;;21.52;54.17;101791.94;5058827;28;20027;-55
2023/07/17 07:57:08;;;;;;;6.45;3.45;;;;;;;21.52;54.61;101789.22;5059177;28;20067;-54
2023/07/17 07:59:33;;;;;;;5.82;3.60;;;;;;;21.52;54.32;101780.25;5060863;28;20029;-55
2023/07/17 08:01:58;;;;;;;7.20;3.42;;;;;;;21.52;54.08;101791.94;5061637;28;20463;-55
2023/07/17 08:04:24;;;;;;;8.88;3.58;;;;;;;21.53;54.60;101787.34;5060342;28;20036;-55
2023/07/17 08:06:49;;;;;;;7.28;3.38;;;;;;;21.53;54.36;101790.06;5059055;28;20033;-55
2023/07/17 08:09:14;;;;;;;8.00;3.63;;;;;;;21.52;54.41;101800.06;5060797;28;20032;-55
2023/07/17 08:11:40;;;;;;;4.82;2.65;;;;;;;21.54;54.55;101797.22;5059966;28;20036;-55
2023/07/17 08:14:05;;;;;;;6.72;3.70;;;;;;;21.54;54.37;101806.19;5058373;28;20043;-55
2023/07/17 08:16:30;;;;;;;7.00;3.97;;;;;;;21.54;53.92;101795.34;5062306;28;20139;-55
2023/07/17 08:18:56;;;;;;;8.10;4.00;;;;;;;21.55;54.10;101798.91;5059770;28;20037;-55
2023/07/17 08:21:22;;;;;;;6.43;3.67;;;;;;;21.55;53.97;101802.50;5060229;28;20041;-55
2023/07/17 08:23:47;;;;;;;7.45;3.42;;;;;;;21.56;54.36;101797.91;5060592;28;20084;-54
2023/07/17 08:26:12;;;;;;;7.55;3.78;;;;;;;21.55;54.46;101798.91;5062277;28;20391;-55
2023/07/17 08:28:38;;;;;;;7.82;3.60;;;;;;;21.56;54.33;101803.34;5060071;28;20040;-55
2023/07/17 08:31:03;;;;;;;8.75;3.47;;;;;;;21.56;54.48;101798.75;5063050;28;20036;-55
2023/07/17 08:33:29;;;;;;;5.13;3.20;;;;;;;21.56;54.25;101800.63;5060054;28;20533;-55
2023/07/17 08:35:54;;;;;;;7.20;3.60;;;;;;;21.56;54.06;101803.34;5059719;28;20546;-54
2023/07/17 08:38:20;;;;;;;7.82;3.55;;;;;;;21.55;54.02;101805.19;5058968;28;20036;-55
2023/07/17 08:40:51;;;;;;;7.95;3.65;;;;;;;21.56;54.14;101806.03;5062142;28;20487;-55
2023/07/17 08:43:17;;;;;;;6.15;3.70;;;;;;;21.56;54.04;101806.03;5056449;28;20025;-54
2023/07/17 08:45:43;;;;;;;9.85;3.58;;;;;;;21.56;53.79;101804.19;5056554;28;20033;-54
2023/07/17 08:48:08;;;;;;;7.95;3.15;;;;;;;21.57;53.70;101821.28;5059139;28;20028;-55
2023/07/17 08:50:34;;;;;;;5.82;2.83;;;;;;;21.58;53.74;101817.59;5058841;28;20055;-55
2023/07/17 08:53:00;;;;;;;7.80;3.70;;;;;;;21.58;53.60;101817.59;5062067;28;20033;-55
2023/07/17 08:55:29;;;;;;;5.40;3.13;;;;;;;21.58;53.92;101820.31;5055016;28;20041;-55
2023/07/17 08:57:55;;;;;;;6.78;3.40;;;;;;;21.57;53.64;101803.19;5055677;28;20033;-55
2023/07/17 09:00:23;;;;;;;7.55;3.30;;;;;;;21.59;53.64;101816.56;5060001;28;20112;-54
2023/07/17 09:02:50;;;;;;;4.45;2.83;;;;;;;21.59;53.75;101812.03;5055305;28;20112;-54
2023/07/17 09:05:16;;;;;;;5.95;3.58;;;;;;;21.58;53.61;101810.31;5058100;28;20544;-54
2023/07/17 09:07:41;;;;;;;7.05;3.08;;;;;;;21.58;53.98;101815.72;5059601;28;20474;-55
2023/07/17 09:10:20;;;;;;;6.32;3.40;;;;;;;21.60;53.60;101813.72;5054422;28;20033;-55
2023/07/17 09:12:51;;;;;;;6.05;3.15;;;;;;;21.60;53.70;101812.88;5057850;28;20387;-55
2023/07/17 09:15:18;;;;;;;8.45;3.65;;;;;;;21.60;53.96;101811.00;5059261;28;20033;-55
2023/07/17 09:17:44;;;;;;;5.82;3.65;;;;;;;21.60;53.68;101805.59;5058428;28;20053;-55
2023/07/17 09:20:11;;;;;;;7.78;3.58;;;;;;;21.62;53.86;101811.72;5058844;28;20090;-55
2023/07/17 09:22:38;;;;;;;4.53;3.15;;;;;;;21.62;53.51;101814.44;5060254;28;20060;-55
2023/07/17 09:25:04;;;;;;;8.38;3.70;;;;;;;21.62;53.32;101814.44;5060294;28;20391;-54
2023/07/17 09:27:30;;;;;;;9.05;3.38;;;;;;;21.62;53.67;101819.00;5062048;28;20044;-54
2023/07/17 09:29:55;;;;;;;5.95;3.67;;;;;;;21.62;53.56;101825.28;5062281;28;20039;-54
2023/07/17 09:32:22;;;;;;;8.30;3.17;;;;;;;21.62;53.51;101819.84;5059680;28;20033;-55
2023/07/17 09:35:04;;;;;;;6.80;3.70;;;;;;;21.64;53.25;101820.56;5058782;28;20391;-54
2023/07/17 09:37:33;;;;;;;5.75;3.20;;;;;;;21.64;53.57;101815.13;5059137;28;20035;-54
2023/07/17 09:40:12;;;;;;;5.70;2.83;;;;;;;21.64;53.21;101811.56;5055492;28;20035;-55
2023/07/17 09:42:50;;;;;;;6.43;2.92;;;;;;;21.65;53.80;101814.16;5056462;28;20393;-55
2023/07/17 09:45:18;;;;;;;6.40;2.78;;;;;;;21.66;53.08;101821.25;5059197;28;20389;-54
2023/07/17 09:47:46;;;;;;;4.68;3.20;;;;;;;21.65;53.13;101818.72;5057501;28;20091;-55
2023/07/17 09:50:13;;;;;;;6.20;3.15;;;;;;;21.64;53.04;101815.13;5058196;28;20028;-55
2023/07/17 09:52:39;;;;;;;6.65;3.53;;;;;;;21.63;53.43;101818.88;5058520;28;20036;-55
2023/07/17 09:55:05;;;;;;;8.10;3.15;;;;;;;21.65;52.94;101826.84;5059304;28;20044;-54
2023/07/17 09:57:36;;;;;;;9.07;4.05;;;;;;;21.64;52.79;101825.97;5058003;28;20056;-55
2023/07/17 10:00:03;;;;;;;5.53;2.88;;;;;;;21.64;52.85;101823.25;5059405;28;20112;-54
2023/07/17 10:02:36;;;;;;;5.32;3.00;;;;;;;21.64;52.93;101833.25;5053690;28;20508;-55
2023/07/17 10:05:05;;;;;;;5.40;2.95;;;;;;;21.65;53.33;101821.44;5053721;28;20025;-56
2023/07/17 10:07:35;;;;;;;5.43;3.58;;;;;;;21.65;52.87;101819.56;5062421;28;20093;-56
2023/07/17 10:10:03;;;;;;;7.00;2.60;;;;;;;21.66;52.94;101823.97;5061947;28;20029;-56
2023/07/17 10:12:29;;;;;;;7.63;3.30;;;;;;;21.66;52.91;101825.84;5058261;28;20087;-56
2023/07/17 10:14:56;;;;;;;4.50;2.83;;;;;;;21.66;53.17;101820.41;5058387;28;20025;-56
2023/07/17 10:17:33;;;;;;;4.63;2.90;;;;;;;21.69;52.87;101824.69;5059121;28;20049;-56
2023/07/17 10:20:06;;;;;;;6.70;3.00;;;;;;;21.68;52.73;101826.53;5057875;28;21073;-56
2023/07/17 10:22:40;;;;;;;7.63;2.67;;;;;;;21.70;53.27;101829.94;5061749;28;20039;-56
2023/07/17 10:25:29;;;;;;;6.22;2.83;;;;;;;21.75;53.17;101826.81;5059715;28;20493;-56
2023/07/17 10:28:02;;;;;;;4.93;2.20;;;;;;;21.72;52.96;101827.09;5046711;28;20594;-56
2023/07/17 10:30:33;;;;;;;3.72;2.90;;;;;;;21.72;52.57;101837.94;5062143;28;20070;-56
2023/07/17 10:33:12;;;;;;;3.80;2.50;;;;;;;21.72;52.25;101825.22;5061854;28;20037;-56
2023/07/17 10:35:47;;;;;;;5.30;3.05;;;;;;;21.76;52.56;101831.22;5061335;28;20368;-57
2023/07/17 10:38:15;;;;;;;6.18;2.90;;;;;;;21.73;52.39;101818.81;5058985;28;20062;-56
2023/07/17 10:40:41;;;;;;;5.50;3.03;;;;;;;21.74;52.45;101820.56;5044090;28;20025;-56
2023/07/17 10:43:18;;;;;;;6.18;2.90;;;;;;;21.75;52.94;101830.38;5065938;28;20024;-56
2023/07/17 10:45:45;;;;;;;4.88;3.05;;;;;;;21.76;52.49;101834.81;5058983;28;20029;-56
2023/07/17 10:48:11;;;;;;;4.70;3.10;;;;;;;21.76;52.42;101833.94;5069476;28;20111;-56
2023/07/17 10:50:38;;;;;;;6.35;3.00;;;;;;;21.77;52.08;101833.78;5065043;28;20410;-56
2023/07/17 10:53:05;;;;;;;4.72;2.78;;;;;;;21.77;52.10;101836.50;5065836;28;20032;-56
2023/07/17 10:55:32;;;;;;;5.85;3.20;;;;;;;21.77;52.04;101838.38;5058812;28;20037;-56
2023/07/17 10:57:59;;;;;;;6.15;2.90;;;;;;;21.76;51.94;101820.38;5060586;28;20618;-57
2023/07/17 11:00:24;;;;;;;4.82;2.90;;;;;;;21.76;51.73;101815.84;5058298;28;20478;-56
2023/07/17 11:02:50;;;;;;;7.03;3.00;;;;;;;21.78;51.86;101812.94;5061502;28;20071;-56
2023/07/17 11:05:15;;;;;;;5.35;2.70;;;;;;;21.77;51.68;101822.94;5059034;28;20111;-57
2023/07/17 11:07:41;;;;;;;5.22;2.72;;;;;;;21.79;52.04;101820.09;5061833;28;20021;-56
2023/07/17 11:10:12;;;;;;;6.50;2.70;;;;;;;21.79;52.23;101809.25;5060517;28;20033;-56
2023/07/17 11:12:39;;;;;;;8.50;3.20;;;;;;;21.79;51.88;101814.66;5056750;28;20055;-56
2023/07/17 11:15:12;;;;;;;4.30;3.10;;;;;;;21.81;51.70;101812.66;5066006;28;20064;-56
2023/07/17 11:17:37;;;;;;;5.68;2.90;;;;;;;21.81;52.17;101821.66;5060875;28;20123;-56
2023/07/17 11:20:04;;;;;;;6.13;3.30;;;;;;;21.81;51.40;101804.53;5059353;28;20108;-56